createdAt,value
2023-05-25T00:01:51.361Z,75.78
2023-05-25T00:04:29.955Z,75.81
2023-05-25T00:06:57.143Z,75.81
2023-05-25T00:09:25.164Z,75.61
2023-05-25T00:11:56.513Z,75.80
2023-05-25T00:14:25.149Z,75.86
2023-05-25T00:16:53.988Z,75.91
2023-05-25T00:19:21.738Z,75.86
2023-05-25T00:21:49.656Z,75.72
2023-05-25T00:24:16.713Z,75.96
2023-05-25T00:26:43.617Z,75.92
2023-05-25T00:29:10.712Z,75.97
2023-05-25T00:31:37.901Z,76.01
2023-05-25T00:34:05.015Z,76.08
2023-05-25T00:36:32.516Z,76.00
2023-05-25T00:39:00.229Z,76.42
2023-05-25T00:41:28.408Z,76.48
2023-05-25T00:43:55.678Z,76.44
2023-05-25T00:46:23.405Z,76.25
2023-05-25T00:48:58.277Z,76.49
2023-05-25T00:51:26.757Z,76.43
2023-05-25T00:53:53.731Z,76.42
2023-05-25T00:56:32.296Z,76.67
2023-05-25T00:59:04.444Z,76.52
2023-05-25T01:01:39.666Z,76.36
2023-05-25T01:04:14.578Z,76.55
2023-05-25T01:06:47.377Z,76.39
2023-05-25T01:09:18.734Z,76.26
2023-05-25T01:11:49.915Z,76.29
2023-05-25T01:14:20.689Z,76.10
2023-05-25T01:16:53.910Z,75.83
2023-05-25T01:19:22.231Z,75.69
2023-05-25T01:22:12.015Z,75.81
2023-05-25T01:24:50.571Z,75.59
2023-05-25T01:27:43.262Z,75.61
2023-05-25T01:30:14.843Z,75.82
2023-05-25T01:32:43.101Z,75.67
2023-05-25T01:35:11.397Z,75.86
2023-05-25T01:37:46.206Z,75.74
2023-05-25T01:40:14.872Z,75.62
2023-05-25T01:42:42.216Z,75.49
2023-05-25T01:45:11.776Z,75.55
2023-05-25T01:48:03.086Z,75.51
2023-05-25T01:50:36.009Z,75.45
2023-05-25T01:53:05.956Z,75.75
2023-05-25T01:55:37.452Z,75.60
2023-05-25T01:58:06.235Z,75.63
2023-05-25T02:00:34.270Z,75.72
2023-05-25T02:03:02.221Z,75.62
2023-05-25T02:05:29.653Z,75.34
2023-05-25T02:07:56.605Z,75.56
2023-05-25T02:10:23.519Z,75.28
2023-05-25T02:12:50.703Z,75.17
2023-05-25T02:15:18.360Z,75.21
2023-05-25T02:17:45.287Z,75.05
2023-05-25T02:20:13.355Z,75.14
2023-05-25T02:22:40.988Z,75.26
2023-05-25T02:25:08.640Z,75.30
2023-05-25T02:27:36.246Z,75.19
2023-05-25T02:30:03.671Z,75.21
2023-05-25T02:32:31.000Z,75.21
2023-05-25T02:34:58.042Z,75.26
2023-05-25T02:37:25.010Z,75.23
2023-05-25T02:39:52.073Z,75.14
2023-05-25T02:42:19.327Z,75.01
2023-05-25T02:44:47.942Z,75.17
2023-05-25T02:47:16.494Z,74.87
2023-05-25T02:49:44.691Z,75.01
2023-05-25T02:52:11.560Z,75.06
2023-05-25T02:54:39.255Z,75.03
2023-05-25T02:57:06.234Z,74.75
2023-05-25T02:59:33.187Z,74.81
2023-05-25T03:02:00.326Z,74.99
2023-05-25T03:04:28.059Z,74.93
2023-05-25T03:06:55.863Z,74.90
2023-05-25T03:09:22.752Z,75.10
2023-05-25T03:11:50.062Z,75.13
2023-05-25T03:14:17.288Z,74.96
2023-05-25T03:16:44.277Z,75.05
2023-05-25T03:19:11.690Z,75.03
2023-05-25T03:21:38.948Z,74.99
2023-05-25T03:24:06.253Z,74.99
2023-05-25T03:26:34.323Z,75.17
2023-05-25T03:29:01.459Z,75.24
2023-05-25T03:31:28.263Z,75.15
2023-05-25T03:33:55.230Z,75.32
2023-05-25T03:36:22.061Z,75.28
2023-05-25T03:38:49.400Z,75.23
2023-05-25T03:41:16.392Z,75.29
2023-05-25T03:43:43.178Z,75.45
2023-05-25T03:46:11.189Z,75.47
2023-05-25T03:48:38.147Z,75.67
2023-05-25T03:51:05.916Z,75.42
2023-05-25T03:53:32.876Z,75.54
2023-05-25T03:56:00.195Z,75.62
2023-05-25T03:58:27.124Z,75.76
2023-05-25T04:00:55.814Z,75.86
2023-05-25T04:03:23.075Z,75.93
2023-05-25T04:05:50.261Z,76.10
2023-05-25T04:08:21.878Z,76.41
2023-05-25T04:10:48.790Z,76.48
2023-05-25T04:13:15.655Z,76.77
2023-05-25T04:15:42.859Z,76.74
2023-05-25T04:18:10.391Z,76.93
2023-05-25T04:20:37.344Z,77.44
2023-05-25T04:23:04.272Z,77.54
2023-05-25T04:25:31.802Z,77.53
2023-05-25T04:27:58.711Z,77.15
2023-05-25T04:30:25.653Z,77.29
2023-05-25T04:32:54.460Z,77.32
2023-05-25T04:35:21.487Z,77.10
2023-05-25T04:37:48.510Z,77.28
2023-05-25T04:40:15.484Z,77.45
2023-05-25T04:42:42.346Z,77.65
2023-05-25T04:45:16.980Z,77.03
2023-05-25T04:47:45.383Z,76.78
2023-05-25T04:50:12.565Z,76.92
2023-05-25T04:52:39.686Z,76.66
2023-05-25T04:55:07.027Z,76.51
2023-05-25T04:57:34.072Z,76.57
2023-05-25T05:00:00.995Z,76.25
2023-05-25T05:02:28.246Z,76.28
2023-05-25T05:04:55.452Z,76.56
2023-05-25T05:07:22.570Z,76.33
2023-05-25T05:09:49.571Z,75.90
2023-05-25T05:12:16.541Z,76.05
2023-05-25T05:14:43.490Z,75.87
2023-05-25T05:17:11.529Z,75.71
2023-05-25T05:19:38.413Z,75.84
2023-05-25T05:22:05.560Z,75.77
2023-05-25T05:24:32.570Z,75.79
2023-05-25T05:26:59.701Z,75.16
2023-05-25T05:29:28.333Z,74.86
2023-05-25T05:31:55.880Z,75.20
2023-05-25T05:34:23.029Z,75.44
2023-05-25T05:36:57.846Z,74.90
2023-05-25T05:39:26.887Z,74.64
2023-05-25T05:41:55.216Z,74.24
2023-05-25T05:44:22.707Z,73.83
2023-05-25T05:46:51.137Z,73.27
2023-05-25T05:49:18.317Z,73.57
2023-05-25T05:51:45.337Z,73.78
2023-05-25T05:54:12.314Z,73.40
2023-05-25T05:56:39.265Z,73.15
2023-05-25T05:59:06.316Z,73.04
2023-05-25T06:01:33.318Z,73.10
2023-05-25T06:04:00.362Z,72.19
2023-05-25T06:06:28.137Z,71.67
2023-05-25T06:08:55.194Z,71.79
2023-05-25T06:11:22.209Z,71.41
2023-05-25T06:13:49.194Z,71.23
2023-05-25T06:16:16.164Z,71.37
2023-05-25T06:18:43.216Z,71.72
2023-05-25T06:21:10.821Z,70.97
2023-05-25T06:23:39.630Z,70.90
2023-05-25T06:26:06.895Z,70.85
2023-05-25T06:28:33.950Z,70.48
2023-05-25T06:31:01.023Z,70.79
2023-05-25T06:33:27.955Z,71.08
2023-05-25T06:35:59.751Z,70.82
2023-05-25T06:38:27.857Z,71.09
2023-05-25T06:40:54.999Z,70.90
2023-05-25T06:43:21.931Z,70.67
2023-05-25T06:45:49.352Z,70.67
2023-05-25T06:48:16.412Z,70.74
2023-05-25T06:50:43.528Z,71.20
2023-05-25T06:53:10.789Z,70.87
2023-05-25T06:55:37.920Z,71.00
2023-05-25T06:58:04.952Z,71.13
2023-05-25T07:00:32.454Z,70.62
2023-05-25T07:02:59.587Z,70.54
2023-05-25T07:05:26.819Z,70.53
2023-05-25T07:07:53.978Z,70.09
2023-05-25T07:10:21.083Z,70.03
2023-05-25T07:12:47.948Z,69.61
2023-05-25T07:15:15.954Z,69.86
2023-05-25T07:17:43.102Z,69.72
2023-05-25T07:20:12.783Z,69.56
2023-05-25T07:22:39.681Z,69.53
2023-05-25T07:25:07.067Z,69.34
2023-05-25T07:27:35.492Z,69.57
2023-05-25T07:30:02.430Z,69.47
2023-05-25T07:32:29.562Z,69.34
2023-05-25T07:34:56.539Z,69.65
2023-05-25T07:37:23.694Z,69.74
2023-05-25T07:39:50.891Z,69.37
2023-05-25T07:42:21.216Z,69.31
2023-05-25T07:44:48.714Z,69.16
2023-05-25T07:47:16.431Z,69.05
2023-05-25T07:49:43.489Z,68.82
2023-05-25T07:52:11.599Z,68.51
2023-05-25T07:54:39.833Z,68.62
2023-05-25T07:57:07.486Z,68.77
2023-05-25T07:59:34.919Z,68.85
2023-05-25T08:02:02.482Z,68.52
2023-05-25T08:04:33.297Z,68.06
2023-05-25T08:07:01.176Z,67.83
2023-05-25T08:09:28.266Z,67.87
2023-05-25T08:12:04.806Z,67.81
2023-05-25T08:14:40.748Z,67.77
2023-05-25T08:17:07.872Z,67.05
2023-05-25T08:19:34.815Z,66.02
2023-05-25T08:22:01.719Z,65.38
2023-05-25T08:24:28.687Z,66.00
2023-05-25T08:26:55.598Z,65.94
2023-05-25T08:29:22.583Z,65.75
2023-05-25T08:31:50.858Z,65.96
2023-05-25T08:34:18.599Z,65.45
2023-05-25T08:36:45.766Z,65.35
2023-05-25T08:39:13.004Z,65.42
2023-05-25T08:41:44.372Z,65.42
2023-05-25T08:44:13.824Z,65.72
2023-05-25T08:46:43.781Z,65.49
2023-05-25T08:49:43.231Z,64.54
2023-05-25T08:52:14.703Z,63.85
2023-05-25T08:54:44.707Z,64.34
2023-05-25T08:57:20.500Z,65.04
2023-05-25T09:00:00.227Z,64.94
2023-05-25T09:03:19.338Z,64.78
2023-05-25T09:05:55.960Z,64.81
2023-05-25T09:08:26.737Z,64.74
2023-05-25T09:11:02.176Z,64.82
2023-05-25T09:13:30.365Z,64.98
2023-05-25T09:16:02.988Z,64.98
2023-05-25T09:18:30.484Z,64.82
2023-05-25T09:20:57.949Z,64.35
2023-05-25T09:23:25.665Z,64.44
2023-05-25T09:25:53.558Z,63.96
2023-05-25T09:30:51.363Z,64.03
2023-05-25T09:33:19.234Z,64.06
2023-05-25T09:35:47.583Z,64.24
2023-05-25T09:38:16.352Z,64.41
2023-05-25T09:40:44.904Z,64.46
2023-05-25T09:45:45.448Z,64.41
2023-05-25T09:48:14.349Z,64.19
2023-05-25T09:50:43.976Z,64.08
2023-05-25T09:53:14.069Z,63.93
2023-05-25T09:55:53.004Z,64.10
2023-05-25T09:58:27.200Z,64.36
2023-05-25T10:00:56.161Z,64.76
2023-05-25T10:03:24.701Z,64.35
2023-05-25T10:05:54.901Z,63.88
2023-05-25T10:08:28.610Z,63.64
2023-05-25T10:10:57.671Z,63.47
2023-05-25T10:13:29.951Z,62.52
2023-05-25T10:15:59.841Z,61.98
2023-05-25T10:18:29.069Z,62.04
2023-05-25T10:21:05.585Z,62.51
2023-05-25T10:23:52.229Z,62.22
2023-05-25T10:26:26.588Z,61.76
2023-05-25T10:29:01.801Z,61.40
2023-05-25T10:31:34.276Z,61.73
2023-05-25T10:34:03.909Z,61.68
2023-05-25T10:36:35.022Z,61.33
2023-05-25T10:39:03.797Z,60.76
2023-05-25T10:41:32.670Z,61.19
2023-05-25T10:44:02.169Z,61.42
2023-05-25T10:46:30.941Z,61.71
2023-05-25T10:49:02.783Z,62.28
2023-05-25T10:51:41.790Z,62.70
2023-05-25T10:54:14.161Z,63.02
2023-05-25T10:57:28.354Z,63.36
2023-05-25T11:00:06.963Z,63.77
2023-05-25T11:02:56.440Z,64.20
2023-05-25T11:05:28.066Z,64.67
2023-05-25T11:07:59.074Z,64.85
2023-05-25T11:10:49.434Z,65.13
2023-05-25T11:13:36.985Z,65.20
2023-05-25T11:16:38.021Z,65.32
2023-05-25T11:19:15.338Z,65.47
2023-05-25T11:21:46.099Z,65.50
2023-05-25T11:24:18.585Z,65.50
2023-05-25T11:26:58.366Z,65.36
2023-05-25T11:29:31.572Z,64.36
2023-05-25T11:32:00.997Z,64.08
2023-05-25T11:34:32.281Z,63.95
2023-05-25T11:37:04.172Z,64.44
2023-05-25T11:39:32.611Z,63.92
2023-05-25T11:42:07.696Z,63.79
2023-05-25T11:44:50.772Z,63.29
2023-05-25T11:47:23.976Z,63.09
2023-05-25T11:49:52.566Z,63.27
2023-05-25T11:52:22.683Z,63.03
2023-05-25T11:54:53.529Z,62.80
2023-05-25T11:57:25.381Z,62.63
2023-05-25T11:59:56.526Z,62.68
2023-05-25T12:02:25.322Z,62.87
2023-05-25T12:04:56.026Z,63.30
2023-05-25T12:07:26.568Z,63.16
2023-05-25T12:10:12.346Z,63.55
2023-05-25T12:12:47.186Z,63.38
2023-05-25T12:15:20.515Z,61.11
2023-05-25T12:17:51.082Z,60.89
2023-05-25T12:20:20.589Z,61.96
2023-05-25T12:22:49.065Z,62.19
2023-05-25T12:25:22.175Z,62.14
2023-05-25T12:28:16.228Z,62.48
2023-05-25T12:30:45.817Z,62.67
2023-05-25T12:33:15.852Z,62.66
2023-05-25T12:35:49.427Z,62.37
2023-05-25T12:38:19.667Z,62.01
2023-05-25T12:40:48.540Z,61.26
2023-05-25T12:43:17.862Z,61.34
2023-05-25T12:45:46.803Z,61.04
2023-05-25T12:48:15.199Z,61.08
2023-05-25T12:50:59.417Z,60.78
2023-05-25T12:53:29.283Z,60.21
2023-05-25T12:56:04.449Z,60.20
2023-05-25T12:58:32.953Z,60.72
2023-05-25T13:01:01.525Z,60.61
2023-05-25T13:03:31.033Z,59.74
2023-05-25T13:06:03.217Z,59.40
2023-05-25T13:08:32.059Z,59.92
2023-05-25T13:11:01.712Z,58.94
2023-05-25T13:13:29.908Z,59.10
2023-05-25T13:15:58.856Z,58.70
2023-05-25T13:18:27.285Z,59.23
2023-05-25T13:20:57.146Z,58.60
2023-05-25T13:23:25.984Z,57.79
2023-05-25T13:25:54.452Z,57.57
2023-05-25T13:28:22.841Z,57.04
2023-05-25T13:30:51.211Z,57.08
2023-05-25T13:33:19.674Z,57.76
2023-05-25T13:36:08.135Z,58.24
2023-05-25T13:38:39.112Z,58.06
2023-05-25T13:41:07.576Z,57.73
2023-05-25T13:43:36.043Z,58.23
2023-05-25T13:46:04.694Z,57.89
2023-05-25T13:48:33.332Z,57.18
2023-05-25T13:51:03.595Z,57.94
2023-05-25T13:53:32.190Z,57.83
2023-05-25T13:56:13.830Z,57.44
2023-05-25T13:58:42.476Z,57.87
2023-05-25T14:01:11.150Z,58.41
2023-05-25T14:03:39.939Z,58.26
2023-05-25T14:06:08.629Z,58.57
2023-05-25T14:08:37.206Z,58.91
2023-05-25T14:11:05.895Z,58.80
2023-05-25T14:13:56.204Z,59.10
2023-05-25T14:16:26.240Z,58.87
2023-05-25T14:19:04.975Z,58.66
2023-05-25T14:21:33.797Z,58.49
2023-05-25T14:24:02.242Z,57.68
2023-05-25T14:26:30.804Z,57.81
2023-05-25T14:29:02.415Z,58.09
2023-05-25T14:31:31.538Z,57.68
2023-05-25T14:34:01.421Z,57.70
2023-05-25T14:36:46.267Z,58.32
2023-05-25T14:39:29.502Z,57.21
2023-05-25T14:42:06.862Z,57.57
2023-05-25T14:44:35.709Z,57.89
2023-05-25T14:47:04.449Z,57.98
2023-05-25T14:49:33.802Z,57.52
2023-05-25T14:52:02.394Z,57.57
2023-05-25T14:54:31.300Z,57.26
2023-05-25T14:56:59.927Z,57.30
2023-05-25T14:59:30.191Z,57.06
2023-05-25T15:01:58.749Z,57.18
2023-05-25T15:04:30.372Z,57.02
2023-05-25T15:06:59.290Z,57.64
2023-05-25T15:09:27.780Z,57.79
2023-05-25T15:11:56.146Z,57.72
2023-05-25T15:14:24.795Z,57.55
2023-05-25T15:16:53.301Z,57.93
2023-05-25T15:19:21.739Z,58.26
2023-05-25T15:21:50.181Z,57.99
2023-05-25T15:24:18.593Z,57.63
2023-05-25T15:26:46.981Z,58.08
2023-05-25T15:29:15.413Z,57.93
2023-05-25T15:31:44.021Z,58.01
2023-05-25T15:34:12.429Z,58.17
2023-05-25T15:36:40.783Z,57.94
2023-05-25T15:39:11.644Z,57.88
2023-05-25T15:41:40.142Z,57.95
2023-05-25T15:44:12.744Z,58.09
2023-05-25T15:46:42.038Z,57.97
2023-05-25T15:49:13.490Z,57.74
2023-05-25T15:51:42.972Z,57.71
2023-05-25T15:54:14.441Z,57.57
2023-05-25T15:56:43.499Z,57.96
2023-05-25T15:59:12.868Z,57.94
2023-05-25T16:01:41.303Z,57.93
2023-05-25T16:04:09.875Z,58.02
2023-05-25T16:06:39.267Z,58.12
2023-05-25T16:09:07.775Z,57.91
2023-05-25T16:11:36.179Z,58.11
2023-05-25T16:14:04.568Z,58.39
2023-05-25T16:16:33.000Z,58.42
2023-05-25T16:19:01.436Z,58.44
2023-05-25T16:21:30.065Z,58.61
2023-05-25T16:23:58.650Z,58.86
2023-05-25T16:26:27.148Z,58.37
2023-05-25T16:28:55.644Z,58.27
2023-05-25T16:31:24.298Z,57.62
2023-05-25T16:33:52.664Z,57.08
2023-05-25T16:36:21.319Z,57.03
2023-05-25T16:38:49.737Z,56.92
2023-05-25T16:41:18.206Z,56.23
2023-05-25T16:43:47.559Z,56.34
2023-05-25T16:46:16.141Z,56.46
2023-05-25T16:48:46.796Z,56.21
2023-05-25T16:51:18.308Z,56.65
2023-05-25T16:53:47.124Z,56.81
2023-05-25T16:56:15.577Z,56.96
2023-05-25T16:58:44.119Z,56.93
2023-05-25T17:01:12.840Z,56.72
2023-05-25T17:03:41.386Z,56.96
2023-05-25T17:06:10.007Z,56.92
2023-05-25T17:08:38.408Z,57.23
2023-05-25T17:11:06.650Z,57.00
2023-05-25T17:13:35.932Z,57.26
2023-05-25T17:16:04.426Z,57.66
2023-05-25T17:18:32.845Z,58.00
2023-05-25T17:21:03.045Z,58.21
2023-05-25T17:23:31.383Z,58.64
2023-05-25T17:26:00.036Z,58.92
2023-05-25T17:28:29.130Z,59.21
2023-05-25T17:30:59.196Z,59.41
2023-05-25T17:33:27.590Z,59.75
2023-05-25T17:35:56.046Z,59.93
2023-05-25T17:38:24.378Z,60.01
2023-05-25T17:40:52.753Z,60.28
2023-05-25T17:43:21.052Z,60.42
2023-05-25T17:45:49.406Z,60.57
2023-05-25T17:48:18.201Z,60.60
2023-05-25T17:50:46.515Z,60.98
2023-05-25T17:53:14.827Z,60.89
2023-05-25T17:55:43.282Z,61.05
2023-05-25T17:58:11.793Z,61.11
2023-05-25T18:00:40.116Z,61.41
2023-05-25T18:03:08.943Z,61.38
2023-05-25T18:05:38.039Z,61.44
2023-05-25T18:08:06.379Z,61.64
2023-05-25T18:10:34.708Z,61.74
2023-05-25T18:13:03.120Z,61.85
2023-05-25T18:15:31.500Z,62.10
2023-05-25T18:18:01.076Z,62.14
2023-05-25T18:20:29.525Z,62.05
2023-05-25T18:22:59.585Z,62.37
2023-05-25T18:25:27.980Z,62.30
2023-05-25T18:27:56.370Z,62.26
2023-05-25T18:30:25.253Z,62.45
2023-05-25T18:32:53.652Z,62.34
2023-05-25T18:35:22.165Z,62.34
2023-05-25T18:37:50.501Z,62.41
2023-05-25T18:40:18.838Z,62.39
2023-05-25T18:42:47.224Z,62.50
2023-05-25T18:45:15.827Z,62.34
2023-05-25T18:47:44.395Z,62.44
2023-05-25T18:50:12.923Z,62.55
2023-05-25T18:52:41.838Z,62.53
2023-05-25T18:55:10.453Z,62.71
2023-05-25T18:57:38.990Z,62.71
2023-05-25T19:00:09.568Z,63.00
2023-05-25T19:02:38.963Z,63.14
2023-05-25T19:05:08.127Z,63.40
2023-05-25T19:07:46.893Z,63.40
2023-05-25T19:10:23.597Z,63.41
2023-05-25T19:12:52.034Z,63.54
2023-05-25T19:15:20.650Z,63.62
2023-05-25T19:17:49.140Z,63.65
2023-05-25T19:20:17.640Z,63.67
2023-05-25T19:22:46.744Z,63.79
2023-05-25T19:25:15.315Z,63.98
2023-05-25T19:27:43.656Z,64.02
2023-05-25T19:30:12.247Z,64.12
2023-05-25T19:32:41.073Z,64.18
2023-05-25T19:35:09.778Z,64.30
2023-05-25T19:37:38.880Z,64.27
2023-05-25T19:40:12.889Z,64.27
2023-05-25T19:42:41.295Z,64.44
2023-05-25T19:45:10.058Z,64.58
2023-05-25T19:47:38.549Z,64.57
2023-05-25T19:50:07.974Z,64.65
2023-05-25T19:52:36.358Z,64.77
2023-05-25T19:55:05.127Z,64.82
2023-05-25T19:57:33.596Z,64.94
2023-05-25T20:00:01.991Z,64.97
2023-05-25T20:02:30.434Z,65.04
2023-05-25T20:04:58.970Z,65.03
2023-05-25T20:07:27.365Z,65.07
2023-05-25T20:09:55.744Z,65.19
2023-05-25T20:12:24.123Z,65.28
2023-05-25T20:14:52.387Z,65.34
2023-05-25T20:17:21.104Z,65.43
2023-05-25T20:19:58.836Z,65.33
2023-05-25T20:22:28.329Z,65.36
2023-05-25T20:24:58.664Z,65.58
2023-05-25T20:27:30.291Z,65.46
2023-05-25T20:29:58.794Z,65.58
2023-05-25T20:33:37.181Z,65.51
2023-05-25T20:36:06.077Z,65.94
2023-05-25T20:38:34.620Z,65.89
2023-05-25T20:41:02.895Z,65.83
2023-05-25T20:43:32.070Z,65.89
2023-05-25T20:46:00.915Z,66.17
2023-05-25T20:48:29.247Z,66.20
2023-05-25T20:50:57.637Z,66.36
2023-05-25T20:53:26.240Z,66.44
2023-05-25T20:55:54.553Z,66.29
2023-05-25T20:58:27.599Z,66.48
2023-05-25T21:00:58.031Z,66.32
2023-05-25T21:03:26.543Z,66.35
2023-05-25T21:05:55.064Z,66.37
2023-05-25T21:08:24.129Z,66.30
2023-05-25T21:10:52.599Z,66.34
2023-05-25T21:13:21.323Z,66.46
2023-05-25T21:15:49.794Z,66.63
2023-05-25T21:18:18.151Z,66.51
2023-05-25T21:20:46.587Z,66.70
2023-05-25T21:23:15.004Z,66.59
2023-05-25T21:30:37.039Z,66.81
2023-05-25T21:33:06.047Z,66.91
2023-05-25T21:35:34.631Z,66.97
2023-05-25T21:38:03.166Z,67.07
2023-05-25T21:40:31.673Z,66.87
2023-05-25T21:43:00.095Z,67.03
2023-05-25T21:45:28.329Z,67.13
2023-05-25T21:47:56.606Z,67.21
2023-05-25T21:50:24.809Z,67.14
2023-05-25T21:52:52.980Z,67.13
2023-05-25T21:55:21.312Z,66.97
2023-05-25T21:57:49.529Z,67.31
2023-05-25T22:00:17.899Z,67.31
2023-05-25T22:02:46.515Z,67.36
2023-05-25T22:05:15.995Z,67.50
2023-05-25T22:07:44.300Z,67.47
2023-05-25T22:10:12.557Z,67.59
2023-05-25T22:12:40.940Z,67.48
2023-05-25T22:15:09.734Z,67.45
2023-05-25T22:17:38.488Z,67.63
2023-05-25T22:20:08.598Z,67.64
2023-05-25T22:22:37.619Z,67.75
2023-05-25T22:25:06.436Z,67.77
2023-05-25T22:27:49.624Z,67.58
2023-05-25T22:30:17.950Z,67.79
2023-05-25T22:32:46.189Z,67.79
2023-05-25T22:35:14.468Z,67.64
2023-05-25T22:37:42.665Z,67.64
2023-05-25T22:40:12.009Z,67.70
2023-05-25T22:42:40.419Z,67.72
2023-05-25T22:45:09.393Z,67.81
2023-05-25T22:47:37.647Z,67.52
2023-05-25T22:50:06.816Z,68.07
2023-05-25T22:52:34.970Z,67.66
2023-05-25T22:55:03.977Z,67.74
2023-05-25T22:57:32.138Z,67.86
2023-05-25T23:00:00.478Z,67.89
2023-05-25T23:02:28.922Z,67.91
2023-05-25T23:05:00.401Z,68.06
2023-05-25T23:07:28.675Z,67.84
2023-05-25T23:16:02.517Z,67.92
2023-05-25T23:18:33.913Z,67.96
2023-05-25T23:21:02.560Z,68.29
2023-05-25T23:23:30.935Z,68.10
2023-05-25T23:25:59.322Z,68.47
2023-05-25T23:28:28.417Z,68.49
2023-05-25T23:30:58.476Z,68.51
2023-05-25T23:33:26.786Z,68.43
2023-05-25T23:35:55.487Z,68.62
2023-05-25T23:38:23.758Z,68.40
2023-05-25T23:40:51.958Z,68.62
2023-05-25T23:43:20.312Z,68.75
2023-05-25T23:45:49.083Z,68.81
2023-05-25T23:48:18.465Z,68.78
2023-05-25T23:51:31.392Z,68.86
2023-05-25T23:54:18.241Z,68.91
2023-05-25T23:56:47.936Z,68.98
2023-05-25T23:59:16.455Z,68.86
